sensor_id;sensor_type;location;lat;lon;timestamp;P1;durP1;ratioP1;P2;durP2;ratioP2
8944;SDS011;4507;40.232;29.132;2022-11-23T11:20:28;53.97;;;5.03;;
8944;SDS011;4507;40.232;29.132;2022-11-23T11:22:59;12.17;;;6.73;;
8944;SDS011;4507;40.232;29.132;2022-11-23T11:25:31;28.60;;;8.20;;
8944;SDS011;4507;40.232;29.132;2022-11-23T11:28:03;48.87;;;9.20;;
8944;SDS011;4507;40.232;29.132;2022-11-23T11:30:46;25.57;;;7.57;;
8944;SDS011;4507;40.232;29.132;2022-11-23T11:33:23;142.70;;;15.43;;
8944;SDS011;4507;40.232;29.132;2022-11-23T11:36:02;225.50;;;88.03;;
8944;SDS011;4507;40.232;29.132;2022-11-23T11:38:33;96.40;;;37.73;;
8944;SDS011;4507;40.232;29.132;2022-11-23T11:41:05;28.03;;;6.67;;
8944;SDS011;4507;40.232;29.132;2022-11-23T11:43:36;14.00;;;5.30;;
8944;SDS011;4507;40.232;29.132;2022-11-23T11:46:11;15.73;;;6.97;;
8944;SDS011;4507;40.232;29.132;2022-11-23T11:48:58;20.83;;;8.37;;
8944;SDS011;4507;40.232;29.132;2022-11-23T11:51:33;17.13;;;6.73;;
8944;SDS011;4507;40.232;29.132;2022-11-23T11:54:08;23.73;;;6.67;;
8944;SDS011;4507;40.232;29.132;2022-11-23T11:56:43;32.70;;;6.33;;
8944;SDS011;4507;40.232;29.132;2022-11-23T11:59:18;27.73;;;5.17;;
8944;SDS011;4507;40.232;29.132;2022-11-23T12:01:55;13.30;;;5.43;;
8944;SDS011;4507;40.232;29.132;2022-11-23T12:04:38;9.97;;;4.87;;
8944;SDS011;4507;40.232;29.132;2022-11-23T12:07:11;21.97;;;7.90;;
8944;SDS011;4507;40.232;29.132;2022-11-23T12:09:45;11.57;;;4.93;;
8944;SDS011;4507;40.232;29.132;2022-11-23T12:12:19;13.93;;;5.90;;
8944;SDS011;4507;40.232;29.132;2022-11-23T12:14:55;17.77;;;6.10;;
8944;SDS011;4507;40.232;29.132;2022-11-23T12:20:40;15.20;;;4.97;;
8944;SDS011;4507;40.232;29.132;2022-11-23T12:23:21;19.10;;;5.20;;
8944;SDS011;4507;40.232;29.132;2022-11-23T12:26:02;29.93;;;4.63;;
8944;SDS011;4507;40.232;29.132;2022-11-23T12:28:47;15.40;;;4.93;;
8944;SDS011;4507;40.232;29.132;2022-11-23T12:31:29;16.17;;;4.23;;
8944;SDS011;4507;40.232;29.132;2022-11-23T12:34:13;12.07;;;3.63;;
8944;SDS011;4507;40.232;29.132;2022-11-23T12:37:01;8.37;;;2.20;;
8944;SDS011;4507;40.232;29.132;2022-11-23T12:42:38;5.93;;;2.97;;
8944;SDS011;4507;40.232;29.132;2022-11-23T12:45:17;5.97;;;2.80;;
8944;SDS011;4507;40.232;29.132;2022-11-23T12:47:58;17.80;;;6.87;;
8944;SDS011;4507;40.232;29.132;2022-11-23T12:50:42;19.97;;;5.93;;
8944;SDS011;4507;40.232;29.132;2022-11-23T12:53:26;10.77;;;4.60;;
8944;SDS011;4507;40.232;29.132;2022-11-23T12:56:06;28.67;;;7.90;;
8944;SDS011;4507;40.232;29.132;2022-11-23T12:58:46;34.47;;;5.60;;
8944;SDS011;4507;40.232;29.132;2022-11-23T13:01:17;32.97;;;4.70;;
8944;SDS011;4507;40.232;29.132;2022-11-23T13:10:18;19.50;;;6.00;;
8944;SDS011;4507;40.232;29.132;2022-11-23T13:13:01;24.13;;;5.13;;
8944;SDS011;4507;40.232;29.132;2022-11-23T13:15:45;37.90;;;6.30;;
8944;SDS011;4507;40.232;29.132;2022-11-23T13:18:52;14.07;;;4.10;;
8944;SDS011;4507;40.232;29.132;2022-11-23T13:21:40;15.30;;;5.00;;
8944;SDS011;4507;40.232;29.132;2022-11-23T13:30:20;16.10;;;6.00;;
8944;SDS011;4507;40.232;29.132;2022-11-23T13:33:24;14.07;;;6.87;;
8944;SDS011;4507;40.232;29.132;2022-11-23T13:36:02;12.00;;;8.50;;
8944;SDS011;4507;40.232;29.132;2022-11-23T13:38:42;13.40;;;7.63;;
8944;SDS011;4507;40.232;29.132;2022-11-23T13:44:25;11.40;;;6.27;;
8944;SDS011;4507;40.232;29.132;2022-11-23T13:46:58;8.07;;;6.03;;
8944;SDS011;4507;40.232;29.132;2022-11-23T13:49:45;12.70;;;6.73;;
8944;SDS011;4507;40.232;29.132;2022-11-23T13:52:28;13.53;;;7.40;;
8944;SDS011;4507;40.232;29.132;2022-11-23T13:55:05;14.50;;;6.93;;
8944;SDS011;4507;40.232;29.132;2022-11-23T14:00:50;17.70;;;7.20;;
8944;SDS011;4507;40.232;29.132;2022-11-23T14:06:19;18.73;;;7.53;;
8944;SDS011;4507;40.232;29.132;2022-11-23T14:08:59;18.87;;;7.47;;
8944;SDS011;4507;40.232;29.132;2022-11-23T14:11:32;17.77;;;7.27;;
8944;SDS011;4507;40.232;29.132;2022-11-23T14:14:14;28.10;;;9.83;;
8944;SDS011;4507;40.232;29.132;2022-11-23T14:16:55;146.70;;;79.17;;
8944;SDS011;4507;40.232;29.132;2022-11-23T14:19:37;44.73;;;23.67;;
8944;SDS011;4507;40.232;29.132;2022-11-23T14:22:19;38.20;;;19.03;;
8944;SDS011;4507;40.232;29.132;2022-11-23T14:24:59;26.87;;;12.97;;
8944;SDS011;4507;40.232;29.132;2022-11-23T14:27:43;61.80;;;33.13;;
8944;SDS011;4507;40.232;29.132;2022-11-23T14:30:22;40.53;;;26.47;;
8944;SDS011;4507;40.232;29.132;2022-11-23T14:33:09;23.63;;;16.20;;
8944;SDS011;4507;40.232;29.132;2022-11-23T14:35:51;32.97;;;16.73;;
8944;SDS011;4507;40.232;29.132;2022-11-23T14:38:34;28.57;;;16.70;;
8944;SDS011;4507;40.232;29.132;2022-11-23T14:41:18;45.00;;;26.87;;
8944;SDS011;4507;40.232;29.132;2022-11-23T14:43:49;51.07;;;35.20;;
8944;SDS011;4507;40.232;29.132;2022-11-23T14:46:20;54.73;;;34.97;;
8944;SDS011;4507;40.232;29.132;2022-11-23T14:49:11;52.73;;;29.70;;
8944;SDS011;4507;40.232;29.132;2022-11-23T14:51:42;55.40;;;27.47;;
8944;SDS011;4507;40.232;29.132;2022-11-23T14:54:13;53.13;;;27.37;;
8944;SDS011;4507;40.232;29.132;2022-11-23T14:56:43;36.63;;;23.47;;
8944;SDS011;4507;40.232;29.132;2022-11-23T14:59:18;26.27;;;18.23;;
8944;SDS011;4507;40.232;29.132;2022-11-23T15:01:51;26.37;;;18.37;;
8944;SDS011;4507;40.232;29.132;2022-11-23T15:04:25;22.07;;;18.07;;
8944;SDS011;4507;40.232;29.132;2022-11-23T15:07:19;25.17;;;20.47;;
8944;SDS011;4507;40.232;29.132;2022-11-23T15:09:53;25.50;;;21.67;;
8944;SDS011;4507;40.232;29.132;2022-11-23T15:12:40;25.20;;;16.87;;
8944;SDS011;4507;40.232;29.132;2022-11-23T15:15:15;18.73;;;14.87;;
8944;SDS011;4507;40.232;29.132;2022-11-23T15:17:51;16.67;;;12.50;;
8944;SDS011;4507;40.232;29.132;2022-11-23T15:20:46;15.47;;;10.83;;
8944;SDS011;4507;40.232;29.132;2022-11-23T15:23:23;20.43;;;17.37;;
8944;SDS011;4507;40.232;29.132;2022-11-23T15:26:05;19.63;;;14.30;;
8944;SDS011;4507;40.232;29.132;2022-11-23T15:29:28;37.33;;;21.90;;
8944;SDS011;4507;40.232;29.132;2022-11-23T15:31:59;59.20;;;39.57;;
8944;SDS011;4507;40.232;29.132;2022-11-23T15:35:10;50.90;;;35.30;;
8944;SDS011;4507;40.232;29.132;2022-11-23T15:37:44;42.97;;;32.30;;
8944;SDS011;4507;40.232;29.132;2022-11-23T15:40:15;44.30;;;30.97;;
8944;SDS011;4507;40.232;29.132;2022-11-23T15:42:47;41.73;;;30.80;;
8944;SDS011;4507;40.232;29.132;2022-11-23T15:45:33;34.67;;;26.63;;
8944;SDS011;4507;40.232;29.132;2022-11-23T15:48:04;25.30;;;19.37;;
8944;SDS011;4507;40.232;29.132;2022-11-23T15:50:50;14.93;;;12.70;;
8944;SDS011;4507;40.232;29.132;2022-11-23T15:53:23;21.53;;;16.70;;
8944;SDS011;4507;40.232;29.132;2022-11-23T15:55:57;11.67;;;9.90;;
8944;SDS011;4507;40.232;29.132;2022-11-23T15:58:28;15.23;;;11.43;;
8944;SDS011;4507;40.232;29.132;2022-11-23T16:01:00;19.37;;;15.67;;
8944;SDS011;4507;40.232;29.132;2022-11-23T16:03:34;15.97;;;11.83;;
8944;SDS011;4507;40.232;29.132;2022-11-23T16:06:18;12.70;;;8.70;;
8944;SDS011;4507;40.232;29.132;2022-11-23T16:08:53;15.30;;;10.57;;
8944;SDS011;4507;40.232;29.132;2022-11-23T16:11:27;12.07;;;8.73;;
8944;SDS011;4507;40.232;29.132;2022-11-23T16:14:11;10.23;;;7.60;;
8944;SDS011;4507;40.232;29.132;2022-11-23T16:16:41;10.07;;;7.10;;
8944;SDS011;4507;40.232;29.132;2022-11-23T16:19:19;7.70;;;5.67;;
8944;SDS011;4507;40.232;29.132;2022-11-23T16:21:54;15.17;;;8.20;;
8944;SDS011;4507;40.232;29.132;2022-11-23T16:24:30;8.17;;;6.50;;
8944;SDS011;4507;40.232;29.132;2022-11-23T16:27:10;24.33;;;13.73;;
8944;SDS011;4507;40.232;29.132;2022-11-23T16:29:40;42.40;;;25.97;;
8944;SDS011;4507;40.232;29.132;2022-11-23T16:32:19;26.63;;;15.37;;
8944;SDS011;4507;40.232;29.132;2022-11-23T16:34:51;5.40;;;3.27;;
8944;SDS011;4507;40.232;29.132;2022-11-23T16:37:21;8.97;;;5.20;;
8944;SDS011;4507;40.232;29.132;2022-11-23T16:39:53;15.50;;;9.20;;
8944;SDS011;4507;40.232;29.132;2022-11-23T16:42:23;14.20;;;7.67;;
8944;SDS011;4507;40.232;29.132;2022-11-23T16:44:53;4.77;;;3.50;;
8944;SDS011;4507;40.232;29.132;2022-11-23T16:47:22;12.13;;;6.37;;
8944;SDS011;4507;40.232;29.132;2022-11-23T16:50:11;5.30;;;4.23;;
8944;SDS011;4507;40.232;29.132;2022-11-23T16:52:40;5.47;;;3.50;;
8944;SDS011;4507;40.232;29.132;2022-11-23T16:55:11;3.50;;;2.93;;
8944;SDS011;4507;40.232;29.132;2022-11-23T16:57:41;5.37;;;3.63;;
8944;SDS011;4507;40.232;29.132;2022-11-23T17:00:13;5.40;;;3.50;;
8944;SDS011;4507;40.232;29.132;2022-11-23T17:02:43;7.73;;;4.37;;
8944;SDS011;4507;40.232;29.132;2022-11-23T17:05:13;10.70;;;5.60;;
8944;SDS011;4507;40.232;29.132;2022-11-23T17:07:43;7.97;;;4.73;;
8944;SDS011;4507;40.232;29.132;2022-11-23T17:10:14;5.67;;;4.10;;
8944;SDS011;4507;40.232;29.132;2022-11-23T17:12:45;32.23;;;16.77;;
8944;SDS011;4507;40.232;29.132;2022-11-23T17:15:18;41.40;;;20.40;;
8944;SDS011;4507;40.232;29.132;2022-11-23T17:17:48;34.30;;;18.47;;
8944;SDS011;4507;40.232;29.132;2022-11-23T17:20:17;10.93;;;6.07;;
8944;SDS011;4507;40.232;29.132;2022-11-23T17:22:46;9.77;;;6.10;;
8944;SDS011;4507;40.232;29.132;2022-11-23T17:25:19;9.47;;;5.60;;
8944;SDS011;4507;40.232;29.132;2022-11-23T17:27:48;11.83;;;7.03;;
8944;SDS011;4507;40.232;29.132;2022-11-23T17:30:18;9.50;;;6.17;;
8944;SDS011;4507;40.232;29.132;2022-11-23T17:32:48;10.37;;;4.97;;
8944;SDS011;4507;40.232;29.132;2022-11-23T17:35:17;6.10;;;4.27;;
8944;SDS011;4507;40.232;29.132;2022-11-23T17:37:47;4.97;;;4.07;;
8944;SDS011;4507;40.232;29.132;2022-11-23T17:40:16;9.63;;;6.83;;
8944;SDS011;4507;40.232;29.132;2022-11-23T17:42:48;14.23;;;9.80;;
8944;SDS011;4507;40.232;29.132;2022-11-23T17:45:17;29.47;;;15.13;;
8944;SDS011;4507;40.232;29.132;2022-11-23T17:47:46;11.43;;;10.00;;
8944;SDS011;4507;40.232;29.132;2022-11-23T17:50:16;37.03;;;21.30;;
8944;SDS011;4507;40.232;29.132;2022-11-23T17:52:46;25.33;;;18.77;;
8944;SDS011;4507;40.232;29.132;2022-11-23T17:55:16;22.63;;;17.33;;
8944;SDS011;4507;40.232;29.132;2022-11-23T17:57:46;24.50;;;17.77;;
8944;SDS011;4507;40.232;29.132;2022-11-23T18:00:16;21.17;;;17.70;;
8944;SDS011;4507;40.232;29.132;2022-11-23T18:02:47;19.63;;;16.47;;
8944;SDS011;4507;40.232;29.132;2022-11-23T18:05:17;19.77;;;17.37;;
8944;SDS011;4507;40.232;29.132;2022-11-23T18:07:48;47.00;;;28.83;;
8944;SDS011;4507;40.232;29.132;2022-11-23T18:10:17;47.40;;;30.50;;
8944;SDS011;4507;40.232;29.132;2022-11-23T18:12:47;55.33;;;35.83;;
8944;SDS011;4507;40.232;29.132;2022-11-23T18:15:17;44.30;;;30.37;;
8944;SDS011;4507;40.232;29.132;2022-11-23T18:17:46;59.93;;;39.63;;
8944;SDS011;4507;40.232;29.132;2022-11-23T18:20:15;42.73;;;38.17;;
8944;SDS011;4507;40.232;29.132;2022-11-23T18:22:44;34.83;;;30.77;;
8944;SDS011;4507;40.232;29.132;2022-11-23T18:25:13;28.00;;;25.10;;
8944;SDS011;4507;40.232;29.132;2022-11-23T18:27:43;30.77;;;27.60;;
8944;SDS011;4507;40.232;29.132;2022-11-23T18:30:14;36.03;;;32.00;;
8944;SDS011;4507;40.232;29.132;2022-11-23T18:32:43;30.80;;;25.90;;
8944;SDS011;4507;40.232;29.132;2022-11-23T18:35:12;28.20;;;24.57;;
8944;SDS011;4507;40.232;29.132;2022-11-23T18:37:41;24.90;;;19.77;;
8944;SDS011;4507;40.232;29.132;2022-11-23T18:40:11;34.67;;;25.83;;
8944;SDS011;4507;40.232;29.132;2022-11-23T18:42:41;37.87;;;26.57;;
8944;SDS011;4507;40.232;29.132;2022-11-23T18:45:10;28.07;;;22.60;;
8944;SDS011;4507;40.232;29.132;2022-11-23T18:47:40;28.07;;;22.87;;
8944;SDS011;4507;40.232;29.132;2022-11-23T18:50:09;43.93;;;29.87;;
8944;SDS011;4507;40.232;29.132;2022-11-23T18:52:39;53.03;;;39.53;;
8944;SDS011;4507;40.232;29.132;2022-11-23T18:55:07;73.70;;;44.17;;
8944;SDS011;4507;40.232;29.132;2022-11-23T18:57:36;65.23;;;44.13;;
8944;SDS011;4507;40.232;29.132;2022-11-23T19:00:06;66.60;;;51.90;;
8944;SDS011;4507;40.232;29.132;2022-11-23T19:02:38;52.87;;;44.20;;
8944;SDS011;4507;40.232;29.132;2022-11-23T19:05:08;53.67;;;42.40;;
8944;SDS011;4507;40.232;29.132;2022-11-23T19:07:37;49.23;;;41.10;;
8944;SDS011;4507;40.232;29.132;2022-11-23T19:10:07;63.67;;;50.63;;
8944;SDS011;4507;40.232;29.132;2022-11-23T19:12:36;55.47;;;45.40;;
8944;SDS011;4507;40.232;29.132;2022-11-23T19:15:05;49.40;;;42.40;;
8944;SDS011;4507;40.232;29.132;2022-11-23T19:17:35;52.20;;;41.10;;
8944;SDS011;4507;40.232;29.132;2022-11-23T19:20:05;46.97;;;35.83;;
8944;SDS011;4507;40.232;29.132;2022-11-23T19:22:37;49.67;;;38.20;;
8944;SDS011;4507;40.232;29.132;2022-11-23T19:25:06;52.77;;;45.97;;
8944;SDS011;4507;40.232;29.132;2022-11-23T19:27:36;39.47;;;34.40;;
8944;SDS011;4507;40.232;29.132;2022-11-23T19:30:06;27.63;;;24.63;;
8944;SDS011;4507;40.232;29.132;2022-11-23T19:32:55;28.00;;;24.83;;
8944;SDS011;4507;40.232;29.132;2022-11-23T19:35:26;28.83;;;24.07;;
8944;SDS011;4507;40.232;29.132;2022-11-23T19:37:56;23.93;;;20.87;;
8944;SDS011;4507;40.232;29.132;2022-11-23T19:40:25;21.50;;;19.20;;
